• Join FlightAware (Why Join?)
  • Login
  • US Flag 
06:31PM EDT


 

Airport Tracker/Info


-or-


 

Live Flight TrackerFlight Track Log ✈ JBU56 ✈ 13-Jun-2013 ✈ KJFK - KBTV

Flight Track Log - Related Links

Times and Time Zones

All times are in EDT time to prevent confusion due to time zone crossing. See the JBU56 flight status page for this flight to view local times or setup timezone preferences in your user account.

Time Position Orientation Groundspeed Altitude Reporting Facility
EDT Latitude Longitude Course Direction KTS MPH feet Rate Location/Type
11:52AM 40.6000 -73.8000 18° North 159 183 2,400  Level New York TRACON
11:54AM 41.0420 -73.5498 27° Northeast  Level FlightAware Approximate
11:54AM 40.6661 -73.6522 59° Northeast 289 333 7,400  Level Boston Center
11:55AM 41.1443 -73.4816 27° Northeast  Level FlightAware Approximate
11:55AM 40.7419 -73.5878 33° Northeast 312 359 10,300  Level Boston Center
11:56AM 41.2518 -73.4316 37° Northeast  Level FlightAware Approximate
11:56AM 40.8339 -73.5567 14° North 321 369 13,500  Level Boston Center
11:57AM 41.3324 -73.3790 18° North  Level FlightAware Approximate
11:57AM 40.9133 -73.5442 North 321 369 15,800  Level Boston Center
11:58AM 41.0133 -73.5514 357° North 321 369 17,000 900 Climbing Boston Center
11:59AM 41.1069 -73.5419 North 331 381 17,600 1,140 Climbing Boston Center
12:00PM 41.1950 -73.4967 21° North 344 396 19,300 1,260 Climbing Boston Center
12:01PM 41.2978 -73.4319 25° Northeast 367 422 20,200 840 Climbing Boston Center
12:02PM 41.4025 -73.3644 26° Northeast 397 457 21,000 360 Climbing Boston Center
12:03PM 41.5117 -73.2800 30° Northeast 426 490 21,000  Level Boston Center
12:04PM 41.6103 -73.1564 43° Northeast 438 504 21,000  Level Boston Center
12:05PM 41.7231 -73.1242 12° North 417 480 21,000  Level Boston Center
12:06PM 41.8397 -73.1422 353° North 409 471 21,000  Level Boston Center
12:07PM 41.9542 -73.1631 352° North 403 464 21,000  Level Boston Center
12:08PM 42.0667 -73.1839 352° North 403 464 21,000  Level Boston Center
12:09PM 42.1811 -73.2050 352° North 408 470 21,000  Level Boston Center
12:10PM 42.2978 -73.2261 352° North 413 475 21,000  Level Boston Center
12:11PM 42.4039 -73.2331 357° North 413 475 21,000  Level Boston Center
12:12PM 42.5225 -73.2542 353° North 425 489 21,000  Level Boston Center
12:13PM 42.6411 -73.2867 349° North 430 495 21,000  Level Boston Center
12:14PM 42.7597 -73.2997 355° North 425 489 21,000  Level Boston Center
12:15PM 42.8767 -73.2900 North 425 489 21,000  Level Boston Center
12:16PM 42.9997 -73.2803 North 425 489 21,000  Level Boston Center
12:17PM 43.1186 -73.2678 North 425 489 21,000  Level Boston Center
12:18PM 43.2353 -73.2581 North 425 489 21,000  Level Boston Center
12:19PM 43.3542 -73.2511 North 425 489 21,000 -660 Level Boston Center
12:20PM 43.4750 -73.2356 North 413 475 19,700 -1,800 Descending Boston Center
12:21PM 43.5878 -73.2256 North 402 463 17,400 -2,280 Descending Boston Center
12:22PM 43.6961 -73.2211 North 397 457 15,200 -2,100 Descending Boston Center
12:23PM 43.8025 -73.2139 North 392 451 13,300 -1,860 Descending Boston Center
12:24PM 43.9025 -73.2094 North 364 419 11,500 -1,380 Descending Boston Center
12:25PM 43.9878 -73.2192 355° North 331 381 10,600 -1,440 Descending Boston Center
12:26PM 44.0689 -73.2289 355° North 298 343 8,700 -1,800 Descending Boston Center
12:27PM 44.1481 -73.2414 354° North 291 335 7,100 -1,620 Descending Boston Center
12:28PM 44.2292 -73.2542 354° North 291 335 5,500 -1,080 Descending Boston Center
12:29PM 44.3064 -73.2669 353° North 286 329 5,000 -300 Descending Boston Center
12:30PM 44.3750 -73.2794 353° North 268 308 4,900 -540 Descending Boston Center
12:31PM 44.4289 -73.2919 351° North 230 265 4,000 -1,020 Descending Boston Center
12:32PM 44.4792 -73.2897 North 191 220 2,900 -1,140 Descending Boston Center
12:33PM 44.5064 -73.2464 49° Northeast 142 163 1,800 -1,020 Descending Boston Center
12:34PM 44.4964 -73.1967 106° East 123 142 900 -780 Descending Boston Center
12:35PM 44.4694 -73.1528 131° Southeast 139 160 300 -300 Descending Boston Center
12:36PM 44.4489 -73.1119 125° Southeast 139 160 300  Level Boston Center